createdAt,value
2022-12-16T00:05:30.442Z,98810.39
2022-12-16T00:10:58.230Z,98815.35
2022-12-16T00:16:22.472Z,98820.64
2022-12-16T00:21:46.140Z,98807.02
2022-12-16T00:27:10.282Z,98793.90
2022-12-16T00:32:35.195Z,98782.48
2022-12-16T00:37:58.887Z,98781.81
2022-12-16T00:43:22.783Z,98777.95
2022-12-16T00:48:46.766Z,98793.41
2022-12-16T00:54:10.511Z,98784.09
2022-12-16T00:59:35.206Z,98787.77
2022-12-16T01:04:59.977Z,98791.30
2022-12-16T01:10:24.347Z,98785.59
2022-12-16T01:15:47.966Z,98776.45
2022-12-16T01:21:11.821Z,98781.18
2022-12-16T01:26:35.241Z,98789.67
2022-12-16T01:31:59.592Z,98791.83
2022-12-16T01:37:24.260Z,98788.70
2022-12-16T01:42:47.589Z,98790.36
2022-12-16T01:48:17.526Z,98799.27
2022-12-16T01:53:41.158Z,98794.41
2022-12-16T01:59:04.971Z,98783.12
2022-12-16T02:04:29.782Z,98777.80
2022-12-16T02:09:54.598Z,98772.77
2022-12-16T02:15:44.434Z,98768.69
2022-12-16T02:21:28.263Z,98754.79
2022-12-16T02:26:52.240Z,98752.34
2022-12-16T02:32:42.272Z,98752.38
2022-12-16T02:38:06.506Z,98752.95
2022-12-16T02:43:49.446Z,98758.95
2022-12-16T02:49:16.133Z,98741.67
2022-12-16T02:54:39.662Z,98735.31
2022-12-16T03:00:07.718Z,98728.98
2022-12-16T03:05:34.208Z,98730.42
2022-12-16T03:11:00.029Z,98734.27
2022-12-16T03:16:25.355Z,98736.33
2022-12-16T03:21:54.465Z,98736.78
2022-12-16T03:27:20.947Z,98731.06
2022-12-16T03:32:47.595Z,98734.43
2022-12-16T03:38:11.851Z,98738.91
2022-12-16T03:43:36.607Z,98735.20
2022-12-16T03:49:00.740Z,98728.52
2022-12-16T03:54:24.972Z,98726.63
2022-12-16T03:59:48.191Z,98728.20
2022-12-16T04:05:12.114Z,98731.13
2022-12-16T04:10:53.129Z,98730.06
2022-12-16T04:16:33.938Z,98736.48
2022-12-16T04:22:14.987Z,98737.00
2022-12-16T04:27:38.485Z,98746.64
2022-12-16T04:33:23.869Z,98736.70
2022-12-16T04:39:13.390Z,98729.16
2022-12-16T04:44:53.688Z,98718.83
2022-12-16T04:50:35.191Z,98724.15
2022-12-16T04:56:17.145Z,98738.73
2022-12-16T05:01:57.578Z,98727.75
2022-12-16T05:07:38.918Z,98744.22
2022-12-16T05:13:19.631Z,98753.98
2022-12-16T05:19:00.192Z,98760.48
2022-12-16T05:24:40.999Z,98780.59
2022-12-16T05:30:23.491Z,98789.89
2022-12-16T05:36:04.035Z,98790.56
2022-12-16T05:41:44.620Z,98779.06
2022-12-16T05:47:25.306Z,98791.66
2022-12-16T05:53:12.441Z,98795.20
2022-12-16T05:58:53.852Z,98796.34
2022-12-16T06:04:35.417Z,98797.05
2022-12-16T06:10:20.373Z,98795.54
2022-12-16T06:16:06.644Z,98796.94
2022-12-16T06:21:49.263Z,98790.86
2022-12-16T06:27:30.568Z,98792.41
2022-12-16T06:33:12.017Z,98784.02
2022-12-16T06:38:54.199Z,98783.98
2022-12-16T06:44:34.906Z,98784.05
2022-12-16T06:50:15.442Z,98792.70
2022-12-16T06:55:57.690Z,98791.36
2022-12-16T07:01:40.364Z,98793.39
2022-12-16T07:07:21.676Z,98799.67
2022-12-16T07:13:04.351Z,98803.73
2022-12-16T07:18:45.775Z,98799.96
2022-12-16T07:24:41.222Z,98804.98
2022-12-16T07:30:22.132Z,98810.48
2022-12-16T07:36:03.270Z,98825.56
2022-12-16T07:41:44.602Z,98824.81
2022-12-16T07:47:25.402Z,98838.67
2022-12-16T07:53:07.717Z,98834.45
2022-12-16T07:58:49.661Z,98844.33
2022-12-16T08:04:30.147Z,98855.61
2022-12-16T08:10:11.809Z,98855.99
2022-12-16T08:15:52.980Z,98862.03
2022-12-16T08:21:34.343Z,98859.88
2022-12-16T08:27:15.145Z,98875.45
2022-12-16T08:32:59.728Z,98890.41
2022-12-16T08:38:44.346Z,98896.58
2022-12-16T08:44:25.855Z,98894.98
2022-12-16T08:50:07.955Z,98905.71
2022-12-16T08:55:51.800Z,98906.19
2022-12-16T09:01:32.800Z,98911.60
2022-12-16T09:07:13.421Z,98916.92
2022-12-16T09:12:54.145Z,98916.93
2022-12-16T09:18:35.933Z,98925.80
2022-12-16T09:24:16.677Z,98918.52
2022-12-16T09:29:58.083Z,98918.67
2022-12-16T09:35:38.761Z,98931.17
2022-12-16T09:41:42.905Z,98928.92
2022-12-16T09:47:26.114Z,98922.67
2022-12-16T09:53:09.100Z,98914.05
2022-12-16T09:58:51.668Z,98906.55
2022-12-16T10:04:33.364Z,98909.76
2022-12-16T10:10:23.776Z,98910.44
2022-12-16T10:16:13.245Z,98908.83
2022-12-16T10:22:14.886Z,98914.12
2022-12-16T10:27:55.944Z,98918.63
2022-12-16T10:33:36.678Z,98925.85
2022-12-16T10:39:22.307Z,98936.38
2022-12-16T10:45:15.612Z,98949.00
2022-12-16T10:50:56.749Z,98944.09
2022-12-16T10:56:43.686Z,98939.11
2022-12-16T11:02:29.972Z,98935.48
2022-12-16T11:08:11.848Z,98938.64
2022-12-16T11:13:54.105Z,98939.48
2022-12-16T11:19:41.992Z,98940.02
2022-12-16T11:25:23.554Z,98936.50
2022-12-16T11:31:04.568Z,98946.38
2022-12-16T11:36:45.593Z,98949.34
2022-12-16T11:42:23.689Z,98952.41
2022-12-16T11:48:28.537Z,98956.27
2022-12-16T11:54:10.782Z,98966.23
2022-12-16T11:59:56.635Z,98977.97
2022-12-16T12:05:37.689Z,98980.34
2022-12-16T12:11:27.226Z,98988.45
2022-12-16T12:17:12.173Z,98987.57
2022-12-16T12:22:54.625Z,98979.23
2022-12-16T12:28:35.945Z,98984.15
2022-12-16T12:34:21.783Z,98992.74
2022-12-16T12:40:04.554Z,98995.18
2022-12-16T12:45:54.738Z,98998.93
2022-12-16T12:51:45.161Z,99004.37
2022-12-16T12:57:27.526Z,99008.13
2022-12-16T13:03:23.000Z,99006.20
2022-12-16T13:09:14.243Z,99008.00
2022-12-16T13:14:51.613Z,99017.79
2022-12-16T13:20:49.999Z,99020.72
2022-12-16T13:26:31.271Z,99022.89
2022-12-16T13:32:25.082Z,99033.64
2022-12-16T13:38:15.359Z,99047.30
2022-12-16T13:44:02.087Z,99054.06
2022-12-16T13:49:54.864Z,99067.02
2022-12-16T13:55:36.423Z,99077.69
2022-12-16T14:01:21.415Z,99086.04
2022-12-16T14:07:03.886Z,99091.90
2022-12-16T14:13:05.566Z,99093.94
2022-12-16T14:18:57.388Z,99109.98
2022-12-16T14:24:40.194Z,99117.38
2022-12-16T14:30:21.994Z,99121.98
2022-12-16T14:36:07.579Z,99132.12
2022-12-16T14:41:49.265Z,99145.64
2022-12-16T14:47:36.943Z,99154.64
2022-12-16T14:53:47.474Z,99151.40
2022-12-16T14:59:27.991Z,99156.75
2022-12-16T15:05:09.199Z,99163.19
2022-12-16T15:10:50.873Z,99162.57
2022-12-16T15:16:36.788Z,99171.79
2022-12-16T15:22:19.514Z,99174.39
2022-12-16T15:28:00.163Z,99179.52
2022-12-16T15:33:42.018Z,99197.92
2022-12-16T15:39:28.444Z,99206.66
2022-12-16T15:45:11.135Z,99212.98
2022-12-16T15:50:52.967Z,99219.81
2022-12-16T15:56:57.556Z,99224.34
2022-12-16T16:02:45.129Z,99231.61
2022-12-16T16:08:28.973Z,99244.81
2022-12-16T16:14:14.441Z,99254.23
2022-12-16T16:20:00.135Z,99263.85
2022-12-16T16:25:46.388Z,99274.14
2022-12-16T16:31:32.041Z,99272.27
2022-12-16T16:37:15.086Z,99294.46
2022-12-16T16:42:56.547Z,99303.84
2022-12-16T16:48:46.238Z,99308.19
2022-12-16T16:54:41.867Z,99302.42
2022-12-16T17:00:35.793Z,99296.52
2022-12-16T17:06:34.306Z,99306.11
2022-12-16T17:12:56.563Z,99307.08
2022-12-16T17:18:51.964Z,99317.16
2022-12-16T17:24:40.743Z,99326.35
2022-12-16T17:36:43.511Z,99353.70
2022-12-16T17:42:27.076Z,99360.48
2022-12-16T17:48:10.561Z,99356.46
2022-12-16T17:54:00.114Z,99362.30
2022-12-16T17:59:44.324Z,99370.89
2022-12-16T18:05:34.692Z,99370.69
2022-12-16T18:11:20.018Z,99377.57
2022-12-16T18:17:01.170Z,99381.48
2022-12-16T18:22:41.656Z,99385.65
2022-12-16T18:28:22.347Z,99386.48
2022-12-16T18:34:03.253Z,99389.73
2022-12-16T18:39:44.853Z,99392.19
2022-12-16T18:45:26.923Z,99398.36
2022-12-16T18:51:14.522Z,99401.70
2022-12-16T18:56:55.791Z,99403.96
2022-12-16T19:02:36.738Z,99422.28
2022-12-16T19:08:17.752Z,99429.59
2022-12-16T19:13:58.817Z,99433.41
2022-12-16T19:19:40.377Z,99439.69
2022-12-16T19:25:21.160Z,99450.64
2022-12-16T19:31:02.782Z,99457.39
2022-12-16T19:36:46.987Z,99457.75
2022-12-16T19:42:34.229Z,99458.66
2022-12-16T19:48:22.041Z,99472.15
2022-12-16T19:54:04.091Z,99469.91
2022-12-16T19:59:45.141Z,99474.70
2022-12-16T20:05:26.574Z,99488.25
2022-12-16T20:11:07.150Z,99489.75
2022-12-16T20:16:49.036Z,99500.62
2022-12-16T20:22:42.524Z,99501.60
2022-12-16T20:34:25.547Z,99510.17
2022-12-16T20:40:06.170Z,99510.11
2022-12-16T20:45:46.526Z,99514.05
2022-12-16T20:51:28.359Z,99519.11
2022-12-16T20:57:12.718Z,99524.71
2022-12-16T21:03:09.501Z,99528.51
2022-12-16T21:08:50.481Z,99533.77
2022-12-16T21:14:31.032Z,99544.27
2022-12-16T21:20:11.354Z,99553.38
2022-12-16T21:25:52.899Z,99554.77
2022-12-16T21:31:37.247Z,99564.30
2022-12-16T21:37:18.217Z,99576.16
2022-12-16T21:42:59.023Z,99580.11
2022-12-16T21:48:39.715Z,99589.22
2022-12-16T21:54:20.722Z,99598.16
2022-12-16T22:00:01.813Z,99603.48
2022-12-16T22:05:51.676Z,99606.52
2022-12-16T22:11:33.417Z,99607.79
2022-12-16T22:17:14.209Z,99622.74
2022-12-16T22:22:55.416Z,99623.23
2022-12-16T22:28:37.166Z,99633.83
2022-12-16T22:34:18.999Z,99635.12
2022-12-16T22:40:00.977Z,99637.95
2022-12-16T22:45:42.403Z,99637.14
2022-12-16T22:51:23.078Z,99633.68
2022-12-16T22:57:03.628Z,99641.07
2022-12-16T23:02:44.757Z,99647.90
2022-12-16T23:08:26.153Z,99647.89
2022-12-16T23:14:08.098Z,99657.77
2022-12-16T23:19:49.668Z,99660.32
2022-12-16T23:25:30.476Z,99662.06
2022-12-16T23:31:11.565Z,99669.61
2022-12-16T23:36:52.037Z,99669.59
2022-12-16T23:42:34.235Z,99676.05
2022-12-16T23:48:22.373Z,99682.58
2022-12-16T23:54:04.030Z,99693.19
2022-12-16T23:59:44.915Z,99690.46
